Jenny Lake, Wyoming
Current Conditions -  °F | °C
As of 2:56 PM on Tuesday 21 Oct 2014 (Local Time) from KDIJ Reporting Station
Broken Clouds Broken Clouds  
Wind Chill: 41°   Ceiling: 4400
Heat Index: 47°   Visibility: 10mi
Dew Point: 33°   Wind: 15mph
Humidity: 58%   Direction: 180°S
Pressure: 30.04"   Gusts: 21mph
Location:  43.8705°N, 110.836°W
Report Text: KDIJ 212056Z AUTO 18013G18KT 10SM FEW030 BKN044 08/01 A3004 RMK AO2 58006 60004 T00830005 BKN V SCT SLP124
Loading
Personal Weather Stations






























Interactive Weather Map
Tropical Storm Tracking
New forecast layout! Learn more

10-Day Weather Forecast

Advertisements
Track Severe Weather on mobile